sensor_id;sensor_type;location;lat;lon;timestamp;pressure;altitude;pressure_sealevel;temperature;humidity
36502;BME280;25393;46.108;3.390;2023-03-26T00:01:25;97538.22;;;10.13;94.96
36502;BME280;25393;46.108;3.390;2023-03-26T00:03:53;97529.22;;;9.99;95.50
36502;BME280;25393;46.108;3.390;2023-03-26T00:06:28;97525.56;;;10.00;96.99
36502;BME280;25393;46.108;3.390;2023-03-26T00:08:57;97527.81;;;9.88;99.25
36502;BME280;25393;46.108;3.390;2023-03-26T00:11:25;97503.91;;;9.96;100.00
36502;BME280;25393;46.108;3.390;2023-03-26T00:13:52;97509.16;;;9.82;100.00
36502;BME280;25393;46.108;3.390;2023-03-26T00:16:23;97506.38;;;9.75;100.00
36502;BME280;25393;46.108;3.390;2023-03-26T00:18:50;97495.13;;;9.81;100.00
36502;BME280;25393;46.108;3.390;2023-03-26T00:21:21;97492.22;;;9.91;100.00
36502;BME280;25393;46.108;3.390;2023-03-26T00:24:01;97488.34;;;10.01;99.55
36502;BME280;25393;46.108;3.390;2023-03-26T00:26:32;97468.81;;;10.02;97.73
36502;BME280;25393;46.108;3.390;2023-03-26T00:28:59;97468.91;;;10.09;100.00
36502;BME280;25393;46.108;3.390;2023-03-26T00:31:26;97461.09;;;9.93;100.00
36502;BME280;25393;46.108;3.390;2023-03-26T00:33:52;97473.34;;;9.94;100.00
36502;BME280;25393;46.108;3.390;2023-03-26T00:36:23;97459.56;;;9.98;100.00
36502;BME280;25393;46.108;3.390;2023-03-26T00:38:52;97453.25;;;9.85;100.00
36502;BME280;25393;46.108;3.390;2023-03-26T00:41:21;97441.41;;;9.73;100.00
36502;BME280;25393;46.108;3.390;2023-03-26T00:43:52;97452.09;;;9.79;100.00
36502;BME280;25393;46.108;3.390;2023-03-26T00:46:23;97449.00;;;9.76;100.00
36502;BME280;25393;46.108;3.390;2023-03-26T00:48:50;97422.84;;;9.81;100.00
36502;BME280;25393;46.108;3.390;2023-03-26T00:51:18;97412.84;;;10.06;99.33
36502;BME280;25393;46.108;3.390;2023-03-26T00:53:47;97408.97;;;9.93;99.26
36502;BME280;25393;46.108;3.390;2023-03-26T00:56:14;97389.53;;;10.01;96.37
36502;BME280;25393;46.108;3.390;2023-03-26T00:58:40;97390.59;;;10.15;93.29
36502;BME280;25393;46.108;3.390;2023-03-26T01:01:10;97368.63;;;9.91;93.60
36502;BME280;25393;46.108;3.390;2023-03-26T01:03:40;97367.94;;;9.75;97.35
36502;BME280;25393;46.108;3.390;2023-03-26T01:06:29;97386.72;;;9.65;100.00
36502;BME280;25393;46.108;3.390;2023-03-26T01:09:16;97366.44;;;9.95;92.68
36502;BME280;25393;46.108;3.390;2023-03-26T01:11:47;97368.47;;;10.08;84.43
36502;BME280;25393;46.108;3.390;2023-03-26T01:14:20;97372.00;;;10.00;85.59
36502;BME280;25393;46.108;3.390;2023-03-26T01:16:54;97358.31;;;10.11;85.49
36502;BME280;25393;46.108;3.390;2023-03-26T01:22:14;97346.69;;;10.20;84.97
36502;BME280;25393;46.108;3.390;2023-03-26T01:24:42;97342.28;;;10.13;84.98
36502;BME280;25393;46.108;3.390;2023-03-26T01:27:22;97329.69;;;10.15;84.95
36502;BME280;25393;46.108;3.390;2023-03-26T01:29:54;97322.56;;;10.30;83.83
36502;BME280;25393;46.108;3.390;2023-03-26T01:35:31;97315.31;;;10.38;83.30
36502;BME280;25393;46.108;3.390;2023-03-26T01:38:01;97314.94;;;10.41;81.89
36502;BME280;25393;46.108;3.390;2023-03-26T01:40:48;97285.53;;;10.51;80.12
36502;BME280;25393;46.108;3.390;2023-03-26T01:45:55;97261.31;;;10.54;77.46
36502;BME280;25393;46.108;3.390;2023-03-26T01:48:38;97265.91;;;10.67;77.93
36502;BME280;25393;46.108;3.390;2023-03-26T01:51:07;97256.97;;;10.68;78.67
36502;BME280;25393;46.108;3.390;2023-03-26T01:53:39;97243.09;;;10.66;78.02
36502;BME280;25393;46.108;3.390;2023-03-26T01:56:11;97252.72;;;10.73;77.63
36502;BME280;25393;46.108;3.390;2023-03-26T01:58:54;97240.34;;;10.59;79.23
36502;BME280;25393;46.108;3.390;2023-03-26T02:01:35;97246.53;;;10.66;79.02
36502;BME280;25393;46.108;3.390;2023-03-26T02:04:14;97254.56;;;10.51;79.38
36502;BME280;25393;46.108;3.390;2023-03-26T02:07:17;97234.44;;;10.57;78.45
36502;BME280;25393;46.108;3.390;2023-03-26T02:09:47;97238.03;;;10.71;78.21
36502;BME280;25393;46.108;3.390;2023-03-26T02:12:15;97241.25;;;10.66;77.62
36502;BME280;25393;46.108;3.390;2023-03-26T02:14:43;97233.28;;;10.66;78.60
36502;BME280;25393;46.108;3.390;2023-03-26T02:17:10;97245.81;;;10.72;77.43
36502;BME280;25393;46.108;3.390;2023-03-26T02:19:37;97247.09;;;10.76;78.83
36502;BME280;25393;46.108;3.390;2023-03-26T02:22:11;97224.63;;;10.72;79.06
36502;BME280;25393;46.108;3.390;2023-03-26T02:24:41;97223.84;;;10.78;78.15
36502;BME280;25393;46.108;3.390;2023-03-26T02:27:08;97224.84;;;10.77;78.86
36502;BME280;25393;46.108;3.390;2023-03-26T02:29:38;97231.28;;;10.89;78.35
36502;BME280;25393;46.108;3.390;2023-03-26T02:32:07;97243.56;;;10.90;78.54
36502;BME280;25393;46.108;3.390;2023-03-26T02:34:33;97233.88;;;11.04;77.56
36502;BME280;25393;46.108;3.390;2023-03-26T02:37:05;97231.94;;;11.19;78.10
36502;BME280;25393;46.108;3.390;2023-03-26T02:39:35;97233.22;;;11.02;79.42
36502;BME280;25393;46.108;3.390;2023-03-26T02:42:05;97222.25;;;10.84;80.81
36502;BME280;25393;46.108;3.390;2023-03-26T02:44:31;97225.00;;;10.90;82.74
36502;BME280;25393;46.108;3.390;2023-03-26T02:46:58;97221.06;;;10.86;84.69
36502;BME280;25393;46.108;3.390;2023-03-26T02:49:24;97204.22;;;10.73;85.33
36502;BME280;25393;46.108;3.390;2023-03-26T02:51:51;97208.88;;;10.71;85.36
36502;BME280;25393;46.108;3.390;2023-03-26T02:54:22;97187.44;;;10.66;85.30
36502;BME280;25393;46.108;3.390;2023-03-26T02:56:48;97190.88;;;10.66;85.71
36502;BME280;25393;46.108;3.390;2023-03-26T02:59:15;97198.50;;;10.69;85.26
36502;BME280;25393;46.108;3.390;2023-03-26T03:01:41;97186.69;;;10.72;85.26
36502;BME280;25393;46.108;3.390;2023-03-26T03:04:11;97191.34;;;10.70;85.63
36502;BME280;25393;46.108;3.390;2023-03-26T03:06:38;97181.06;;;10.60;86.21
36502;BME280;25393;46.108;3.390;2023-03-26T03:09:06;97190.38;;;10.56;86.26
36502;BME280;25393;46.108;3.390;2023-03-26T03:11:39;97199.00;;;10.58;86.71
36502;BME280;25393;46.108;3.390;2023-03-26T03:14:06;97205.97;;;10.44;88.58
36502;BME280;25393;46.108;3.390;2023-03-26T03:16:32;97213.28;;;10.42;89.54
36502;BME280;25393;46.108;3.390;2023-03-26T03:19:01;97210.56;;;10.36;88.27
36502;BME280;25393;46.108;3.390;2023-03-26T03:21:28;97213.63;;;10.54;87.15
36502;BME280;25393;46.108;3.390;2023-03-26T03:23:55;97205.84;;;10.52;87.12
36502;BME280;25393;46.108;3.390;2023-03-26T03:26:26;97219.53;;;10.56;86.90
36502;BME280;25393;46.108;3.390;2023-03-26T03:28:53;97218.94;;;10.75;83.11
36502;BME280;25393;46.108;3.390;2023-03-26T03:31:23;97202.38;;;10.73;83.60
36502;BME280;25393;46.108;3.390;2023-03-26T03:33:50;97214.44;;;10.76;83.75
36502;BME280;25393;46.108;3.390;2023-03-26T03:36:18;97195.38;;;11.08;82.51
36502;BME280;25393;46.108;3.390;2023-03-26T03:38:48;97191.06;;;11.07;82.31
36502;BME280;25393;46.108;3.390;2023-03-26T03:41:15;97213.84;;;11.01;83.11
36502;BME280;25393;46.108;3.390;2023-03-26T03:43:44;97226.22;;;10.94;84.49
36502;BME280;25393;46.108;3.390;2023-03-26T03:46:11;97222.25;;;11.05;83.56
36502;BME280;25393;46.108;3.390;2023-03-26T03:48:37;97214.22;;;11.20;82.28
36502;BME280;25393;46.108;3.390;2023-03-26T03:51:05;97218.41;;;11.35;81.93
36502;BME280;25393;46.108;3.390;2023-03-26T03:53:33;97199.63;;;11.37;81.09
36502;BME280;25393;46.108;3.390;2023-03-26T03:56:04;97216.47;;;11.50;81.51
36502;BME280;25393;46.108;3.390;2023-03-26T03:58:35;97205.22;;;11.48;81.86
36502;BME280;25393;46.108;3.390;2023-03-26T04:01:02;97217.50;;;11.49;81.97
36502;BME280;25393;46.108;3.390;2023-03-26T04:03:29;97235.88;;;11.51;80.56
36502;BME280;25393;46.108;3.390;2023-03-26T04:05:59;97219.38;;;11.56;79.41
36502;BME280;25393;46.108;3.390;2023-03-26T04:08:26;97200.31;;;11.45;81.06
36502;BME280;25393;46.108;3.390;2023-03-26T04:10:52;97183.94;;;11.35;82.20
36502;BME280;25393;46.108;3.390;2023-03-26T04:13:19;97213.78;;;11.44;80.07
36502;BME280;25393;46.108;3.390;2023-03-26T04:15:46;97207.16;;;11.33;81.50
36502;BME280;25393;46.108;3.390;2023-03-26T04:18:12;97210.03;;;11.32;80.04
36502;BME280;25393;46.108;3.390;2023-03-26T04:20:43;97222.91;;;11.35;80.32
36502;BME280;25393;46.108;3.390;2023-03-26T04:23:15;97222.47;;;11.31;81.03
36502;BME280;25393;46.108;3.390;2023-03-26T04:25:47;97236.31;;;11.27;81.35
36502;BME280;25393;46.108;3.390;2023-03-26T04:28:26;97243.22;;;11.21;82.40
36502;BME280;25393;46.108;3.390;2023-03-26T04:30:55;97242.94;;;11.16;81.56
36502;BME280;25393;46.108;3.390;2023-03-26T04:33:22;97232.38;;;11.23;81.62
36502;BME280;25393;46.108;3.390;2023-03-26T04:35:50;97235.94;;;11.09;82.66
36502;BME280;25393;46.108;3.390;2023-03-26T04:38:17;97242.94;;;11.16;80.32
36502;BME280;25393;46.108;3.390;2023-03-26T04:40:43;97231.47;;;11.09;81.88
36502;BME280;25393;46.108;3.390;2023-03-26T04:43:14;97252.28;;;11.12;80.64
36502;BME280;25393;46.108;3.390;2023-03-26T04:45:44;97249.13;;;11.23;79.87
36502;BME280;25393;46.108;3.390;2023-03-26T04:48:11;97242.19;;;11.22;79.89
36502;BME280;25393;46.108;3.390;2023-03-26T04:50:41;97260.91;;;11.14;81.68
36502;BME280;25393;46.108;3.390;2023-03-26T04:53:17;97272.13;;;11.16;80.55
36502;BME280;25393;46.108;3.390;2023-03-26T04:56:00;97275.97;;;11.14;81.23
36502;BME280;25393;46.108;3.390;2023-03-26T04:58:29;97280.03;;;11.10;82.22
36502;BME280;25393;46.108;3.390;2023-03-26T05:00:59;97274.53;;;11.11;82.29
36502;BME280;25393;46.108;3.390;2023-03-26T05:03:35;97287.22;;;11.16;83.10
36502;BME280;25393;46.108;3.390;2023-03-26T05:06:13;97291.00;;;11.07;82.47
36502;BME280;25393;46.108;3.390;2023-03-26T05:08:42;97276.03;;;10.99;81.46
36502;BME280;25393;46.108;3.390;2023-03-26T05:11:12;97285.53;;;11.08;82.03
36502;BME280;25393;46.108;3.390;2023-03-26T05:13:38;97275.53;;;11.10;80.15
36502;BME280;25393;46.108;3.390;2023-03-26T05:16:10;97264.44;;;11.00;79.64
36502;BME280;25393;46.108;3.390;2023-03-26T05:18:37;97253.56;;;11.16;78.21
36502;BME280;25393;46.108;3.390;2023-03-26T05:21:07;97276.69;;;11.22;77.68
36502;BME280;25393;46.108;3.390;2023-03-26T05:23:36;97274.38;;;11.19;78.52
36502;BME280;25393;46.108;3.390;2023-03-26T05:26:02;97277.88;;;11.20;79.12
36502;BME280;25393;46.108;3.390;2023-03-26T05:28:29;97271.16;;;11.24;77.63
36502;BME280;25393;46.108;3.390;2023-03-26T05:30:55;97250.84;;;10.88;76.58
36502;BME280;25393;46.108;3.390;2023-03-26T05:33:22;97280.22;;;11.08;74.61
36502;BME280;25393;46.108;3.390;2023-03-26T05:36:18;97294.28;;;11.09;76.40
36502;BME280;25393;46.108;3.390;2023-03-26T05:38:45;97287.47;;;11.21;73.53
36502;BME280;25393;46.108;3.390;2023-03-26T05:41:15;97289.81;;;11.09;73.96
36502;BME280;25393;46.108;3.390;2023-03-26T05:43:42;97307.63;;;10.94;75.21
36502;BME280;25393;46.108;3.390;2023-03-26T05:46:13;97303.88;;;10.88;74.14
36502;BME280;25393;46.108;3.390;2023-03-26T05:48:40;97310.88;;;10.75;74.67
36502;BME280;25393;46.108;3.390;2023-03-26T05:51:07;97286.63;;;10.78;73.68
36502;BME280;25393;46.108;3.390;2023-03-26T05:53:36;97300.72;;;10.78;73.58
36502;BME280;25393;46.108;3.390;2023-03-26T05:56:02;97286.19;;;10.74;73.32
36502;BME280;25393;46.108;3.390;2023-03-26T05:58:31;97287.56;;;10.70;69.44
36502;BME280;25393;46.108;3.390;2023-03-26T06:01:00;97289.56;;;10.83;70.27
36502;BME280;25393;46.108;3.390;2023-03-26T06:03:31;97259.13;;;10.79;67.75
36502;BME280;25393;46.108;3.390;2023-03-26T06:05:58;97271.50;;;10.72;68.63
36502;BME280;25393;46.108;3.390;2023-03-26T06:08:25;97262.88;;;10.70;70.04
36502;BME280;25393;46.108;3.390;2023-03-26T06:11:00;97271.94;;;10.75;70.27
36502;BME280;25393;46.108;3.390;2023-03-26T06:13:27;97261.00;;;10.64;68.46
36502;BME280;25393;46.108;3.390;2023-03-26T06:15:53;97267.31;;;10.63;64.68
36502;BME280;25393;46.108;3.390;2023-03-26T06:18:20;97268.94;;;10.64;64.02
36502;BME280;25393;46.108;3.390;2023-03-26T06:20:48;97280.09;;;10.59;66.26
36502;BME280;25393;46.108;3.390;2023-03-26T06:23:14;97264.44;;;10.43;65.01
36502;BME280;25393;46.108;3.390;2023-03-26T06:25:41;97283.59;;;10.45;65.80
36502;BME280;25393;46.108;3.390;2023-03-26T06:28:12;97299.34;;;10.46;66.35
36502;BME280;25393;46.108;3.390;2023-03-26T06:30:43;97295.72;;;10.33;67.42
36502;BME280;25393;46.108;3.390;2023-03-26T06:33:13;97309.88;;;10.25;68.53
36502;BME280;25393;46.108;3.390;2023-03-26T06:35:43;97323.38;;;10.30;66.92
36502;BME280;25393;46.108;3.390;2023-03-26T06:38:13;97314.91;;;10.20;68.68
36502;BME280;25393;46.108;3.390;2023-03-26T06:40:40;97327.56;;;10.25;68.44
36502;BME280;25393;46.108;3.390;2023-03-26T06:43:07;97309.00;;;10.10;68.30
36502;BME280;25393;46.108;3.390;2023-03-26T06:45:36;97310.03;;;10.09;66.92
36502;BME280;25393;46.108;3.390;2023-03-26T06:48:03;97302.47;;;10.06;68.26
36502;BME280;25393;46.108;3.390;2023-03-26T06:50:30;97304.00;;;10.00;67.37
36502;BME280;25393;46.108;3.390;2023-03-26T06:52:57;97292.66;;;10.07;68.42
36502;BME280;25393;46.108;3.390;2023-03-26T06:55:24;97281.63;;;10.03;68.79
36502;BME280;25393;46.108;3.390;2023-03-26T06:57:52;97262.84;;;10.13;66.05
36502;BME280;25393;46.108;3.390;2023-03-26T07:00:20;97266.72;;;10.46;64.89
36502;BME280;25393;46.108;3.390;2023-03-26T07:02:46;97267.03;;;10.72;63.28
36502;BME280;25393;46.108;3.390;2023-03-26T07:05:13;97263.56;;;10.93;65.92
36502;BME280;25393;46.108;3.390;2023-03-26T07:07:40;97271.38;;;11.22;63.06
36502;BME280;25393;46.108;3.390;2023-03-26T07:10:12;97263.13;;;11.38;65.17
36502;BME280;25393;46.108;3.390;2023-03-26T07:12:40;97265.97;;;11.65;61.61
36502;BME280;25393;46.108;3.390;2023-03-26T07:15:08;97273.25;;;11.77;61.28
36502;BME280;25393;46.108;3.390;2023-03-26T07:17:37;97286.84;;;11.95;64.69
36502;BME280;25393;46.108;3.390;2023-03-26T07:20:06;97290.47;;;11.88;62.64
36502;BME280;25393;46.108;3.390;2023-03-26T07:22:34;97283.59;;;12.00;62.17
36502;BME280;25393;46.108;3.390;2023-03-26T07:25:01;97272.31;;;11.64;60.93
36502;BME280;25393;46.108;3.390;2023-03-26T07:27:52;97276.59;;;11.65;62.18
36502;BME280;25393;46.108;3.390;2023-03-26T07:31:08;97275.06;;;11.49;63.66
36502;BME280;25393;46.108;3.390;2023-03-26T07:39:08;97309.19;;;11.80;59.92
36502;BME280;25393;46.108;3.390;2023-03-26T07:42:13;97302.75;;;11.68;57.51
36502;BME280;25393;46.108;3.390;2023-03-26T07:47:33;97305.69;;;11.73;60.64
36502;BME280;25393;46.108;3.390;2023-03-26T07:50:00;97302.41;;;12.05;60.96
36502;BME280;25393;46.108;3.390;2023-03-26T07:52:27;97288.28;;;12.39;59.86
36502;BME280;25393;46.108;3.390;2023-03-26T07:54:54;97270.88;;;12.84;56.65
36502;BME280;25393;46.108;3.390;2023-03-26T08:06:14;97271.09;;;14.07;54.83
36502;BME280;25393;46.108;3.390;2023-03-26T08:14:22;97276.91;;;12.58;58.38
36502;BME280;25393;46.108;3.390;2023-03-26T08:16:59;97277.81;;;12.24;59.33
36502;BME280;25393;46.108;3.390;2023-03-26T08:19:39;97286.25;;;12.00;59.58
36502;BME280;25393;46.108;3.390;2023-03-26T08:22:20;97303.34;;;11.91;62.67
36502;BME280;25393;46.108;3.390;2023-03-26T08:30:25;97298.16;;;11.76;62.15
36502;BME280;25393;46.108;3.390;2023-03-26T08:32:57;97296.19;;;11.85;61.17
36502;BME280;25393;46.108;3.390;2023-03-26T08:35:26;97272.16;;;11.72;60.25
36502;BME280;25393;46.108;3.390;2023-03-26T08:37:52;97276.00;;;11.69;59.57
36502;BME280;25393;46.108;3.390;2023-03-26T08:54:59;97267.22;;;10.92;55.08
36502;BME280;25393;46.108;3.390;2023-03-26T08:58:17;97279.56;;;10.85;57.15
36502;BME280;25393;46.108;3.390;2023-03-26T09:00:47;97257.47;;;10.78;56.54
36502;BME280;25393;46.108;3.390;2023-03-26T09:03:45;97273.16;;;10.73;56.45
36502;BME280;25393;46.108;3.390;2023-03-26T09:06:45;97274.16;;;10.72;56.86
36502;BME280;25393;46.108;3.390;2023-03-26T09:26:44;97353.56;;;10.07;66.16
36502;BME280;25393;46.108;3.390;2023-03-26T09:35:04;97362.34;;;10.07;67.93
36502;BME280;25393;46.108;3.390;2023-03-26T09:37:58;97370.38;;;9.99;68.73
36502;BME280;25393;46.108;3.390;2023-03-26T09:40:47;97372.53;;;9.81;71.68
36502;BME280;25393;46.108;3.390;2023-03-26T09:54:58;97370.78;;;9.13;79.84
36502;BME280;25393;46.108;3.390;2023-03-26T10:00:27;97364.97;;;9.18;76.63
36502;BME280;25393;46.108;3.390;2023-03-26T10:13:47;97309.38;;;9.78;61.98
36502;BME280;25393;46.108;3.390;2023-03-26T10:16:37;97329.16;;;9.82;64.93
36502;BME280;25393;46.108;3.390;2023-03-26T10:21:49;97314.41;;;10.46;65.63
36502;BME280;25393;46.108;3.390;2023-03-26T10:24:37;97315.94;;;10.91;65.10
36502;BME280;25393;46.108;3.390;2023-03-26T10:27:30;97331.72;;;10.99;64.40
36502;BME280;25393;46.108;3.390;2023-03-26T10:35:49;97296.91;;;12.47;64.13
36502;BME280;25393;46.108;3.390;2023-03-26T10:38:32;97300.66;;;13.53;61.68
36502;BME280;25393;46.108;3.390;2023-03-26T10:47:04;97292.31;;;15.78;52.08
36502;BME280;25393;46.108;3.390;2023-03-26T10:49:53;97286.84;;;15.11;53.93
36502;BME280;25393;46.108;3.390;2023-03-26T10:52:52;97306.94;;;15.76;55.29
36502;BME280;25393;46.108;3.390;2023-03-26T11:00:45;97303.16;;;15.27;55.72
36502;BME280;25393;46.108;3.390;2023-03-26T11:11:59;97307.38;;;13.95;55.61
36502;BME280;25393;46.108;3.390;2023-03-26T11:15:10;97289.06;;;14.18;52.77
36502;BME280;25393;46.108;3.390;2023-03-26T11:23:31;97304.06;;;14.77;48.29
36502;BME280;25393;46.108;3.390;2023-03-26T11:26:13;97300.81;;;13.84;52.17
36502;BME280;25393;46.108;3.390;2023-03-26T11:37:47;97280.69;;;12.29;51.79
36502;BME280;25393;46.108;3.390;2023-03-26T11:40:20;97292.56;;;12.94;53.17
36502;BME280;25393;46.108;3.390;2023-03-26T11:42:58;97279.91;;;13.94;48.99
36502;BME280;25393;46.108;3.390;2023-03-26T11:45:28;97264.38;;;14.56;47.50
36502;BME280;25393;46.108;3.390;2023-03-26T11:48:12;97237.78;;;14.42;45.94
36502;BME280;25393;46.108;3.390;2023-03-26T11:50:48;97259.53;;;14.26;48.46
36502;BME280;25393;46.108;3.390;2023-03-26T11:53:19;97255.59;;;14.48;47.41
36502;BME280;25393;46.108;3.390;2023-03-26T11:58:26;97250.38;;;15.79;46.51
36502;BME280;25393;46.108;3.390;2023-03-26T12:00:55;97255.28;;;15.01;48.32
36502;BME280;25393;46.108;3.390;2023-03-26T12:03:22;97251.28;;;14.47;49.04
36502;BME280;25393;46.108;3.390;2023-03-26T12:05:51;97251.66;;;14.89;51.08
36502;BME280;25393;46.108;3.390;2023-03-26T12:08:30;97239.16;;;14.89;47.18
36502;BME280;25393;46.108;3.390;2023-03-26T12:11:01;97247.72;;;14.60;47.91
36502;BME280;25393;46.108;3.390;2023-03-26T12:13:39;97248.16;;;14.57;48.88
36502;BME280;25393;46.108;3.390;2023-03-26T12:16:14;97239.53;;;13.97;50.21
36502;BME280;25393;46.108;3.390;2023-03-26T12:18:46;97251.59;;;14.07;52.06
36502;BME280;25393;46.108;3.390;2023-03-26T12:21:22;97254.38;;;14.44;50.31
36502;BME280;25393;46.108;3.390;2023-03-26T12:23:57;97242.06;;;14.43;49.32
36502;BME280;25393;46.108;3.390;2023-03-26T12:26:46;97245.97;;;14.79;51.45
36502;BME280;25393;46.108;3.390;2023-03-26T12:33:30;97244.25;;;13.95;48.87
36502;BME280;25393;46.108;3.390;2023-03-26T12:36:55;97234.91;;;13.47;51.26
36502;BME280;25393;46.108;3.390;2023-03-26T12:39:48;97227.03;;;13.98;50.73
36502;BME280;25393;46.108;3.390;2023-03-26T12:42:39;97215.41;;;14.43;48.28
36502;BME280;25393;46.108;3.390;2023-03-26T12:45:36;97215.34;;;15.69;47.62
36502;BME280;25393;46.108;3.390;2023-03-26T12:48:03;97222.03;;;15.28;47.12
36502;BME280;25393;46.108;3.390;2023-03-26T12:50:52;97204.38;;;14.27;46.55
36502;BME280;25393;46.108;3.390;2023-03-26T13:02:21;97205.44;;;13.42;50.34
36502;BME280;25393;46.108;3.390;2023-03-26T13:16:24;97175.56;;;14.04;47.60
36502;BME280;25393;46.108;3.390;2023-03-26T13:22:00;97187.81;;;13.08;46.67
36502;BME280;25393;46.108;3.390;2023-03-26T13:24:47;97202.31;;;12.66;49.16
36502;BME280;25393;46.108;3.390;2023-03-26T13:27:29;97194.69;;;12.50;51.25
36502;BME280;25393;46.108;3.390;2023-03-26T13:32:32;97216.16;;;11.94;53.39
36502;BME280;25393;46.108;3.390;2023-03-26T13:38:00;97222.03;;;11.56;55.18
36502;BME280;25393;46.108;3.390;2023-03-26T13:48:34;97219.72;;;11.74;56.68
36502;BME280;25393;46.108;3.390;2023-03-26T13:51:05;97231.41;;;11.86;59.38
36502;BME280;25393;46.108;3.390;2023-03-26T13:56:43;97211.31;;;12.11;58.08
36502;BME280;25393;46.108;3.390;2023-03-26T13:59:24;97215.31;;;12.35;58.75
36502;BME280;25393;46.108;3.390;2023-03-26T14:02:29;97212.81;;;13.40;57.12
36502;BME280;25393;46.108;3.390;2023-03-26T14:04:59;97208.72;;;13.50;57.13
36502;BME280;25393;46.108;3.390;2023-03-26T14:07:35;97194.78;;;14.19;52.71
36502;BME280;25393;46.108;3.390;2023-03-26T14:18:26;97179.19;;;16.69;46.43
36502;BME280;25393;46.108;3.390;2023-03-26T14:34:47;97150.53;;;13.54;52.21
36502;BME280;25393;46.108;3.390;2023-03-26T14:43:41;97134.41;;;12.83;53.38
36502;BME280;25393;46.108;3.390;2023-03-26T14:54:44;97105.41;;;13.79;49.96
36502;BME280;25393;46.108;3.390;2023-03-26T15:00:28;97108.63;;;13.30;50.71
36502;BME280;25393;46.108;3.390;2023-03-26T15:11:28;97093.50;;;12.71;54.97
36502;BME280;25393;46.108;3.390;2023-03-26T15:16:56;97078.56;;;12.57;54.29
36502;BME280;25393;46.108;3.390;2023-03-26T15:22:22;97084.06;;;12.42;54.01
36502;BME280;25393;46.108;3.390;2023-03-26T15:48:25;97050.84;;;11.32;56.73
36502;BME280;25393;46.108;3.390;2023-03-26T16:01:20;97034.81;;;11.12;58.53
36502;BME280;25393;46.108;3.390;2023-03-26T16:04:06;97020.78;;;11.12;58.23
36502;BME280;25393;46.108;3.390;2023-03-26T16:09:19;97011.66;;;11.34;57.26
36502;BME280;25393;46.108;3.390;2023-03-26T16:11:56;96997.81;;;11.32;57.44
36502;BME280;25393;46.108;3.390;2023-03-26T16:14:46;97002.28;;;11.31;57.54
36502;BME280;25393;46.108;3.390;2023-03-26T16:18:05;97006.28;;;11.14;58.70
36502;BME280;25393;46.108;3.390;2023-03-26T16:23:29;97001.34;;;11.05;62.78
36502;BME280;25393;46.108;3.390;2023-03-26T16:26:10;96998.28;;;11.01;63.59
36502;BME280;25393;46.108;3.390;2023-03-26T16:31:18;97004.41;;;10.39;68.65
36502;BME280;25393;46.108;3.390;2023-03-26T16:36:35;97008.53;;;9.42;80.80
36502;BME280;25393;46.108;3.390;2023-03-26T16:47:19;97023.84;;;8.07;98.74
36502;BME280;25393;46.108;3.390;2023-03-26T16:52:49;97030.03;;;8.14;100.00
36502;BME280;25393;46.108;3.390;2023-03-26T16:58:28;97026.28;;;8.31;100.00
36502;BME280;25393;46.108;3.390;2023-03-26T17:09:27;97017.41;;;8.47;100.00
36502;BME280;25393;46.108;3.390;2023-03-26T17:15:18;97013.13;;;8.46;100.00
36502;BME280;25393;46.108;3.390;2023-03-26T17:21:30;97011.75;;;8.35;100.00
36502;BME280;25393;46.108;3.390;2023-03-26T17:26:57;97013.28;;;8.44;100.00
36502;BME280;25393;46.108;3.390;2023-03-26T17:32:15;97010.50;;;8.61;100.00
36502;BME280;25393;46.108;3.390;2023-03-26T17:42:28;97011.25;;;8.55;100.00
36502;BME280;25393;46.108;3.390;2023-03-26T17:45:07;97037.53;;;8.33;100.00
36502;BME280;25393;46.108;3.390;2023-03-26T17:47:55;97027.06;;;8.40;100.00
36502;BME280;25393;46.108;3.390;2023-03-26T17:50:52;97026.97;;;8.48;100.00
36502;BME280;25393;46.108;3.390;2023-03-26T17:53:26;97031.78;;;8.30;100.00
36502;BME280;25393;46.108;3.390;2023-03-26T17:55:56;97032.31;;;8.17;100.00
36502;BME280;25393;46.108;3.390;2023-03-26T18:01:54;97012.53;;;7.76;100.00
36502;BME280;25393;46.108;3.390;2023-03-26T18:04:34;97016.16;;;7.97;100.00
36502;BME280;25393;46.108;3.390;2023-03-26T18:16:26;97065.06;;;7.85;100.00
36502;BME280;25393;46.108;3.390;2023-03-26T18:19:03;97062.31;;;7.79;100.00
36502;BME280;25393;46.108;3.390;2023-03-26T18:21:39;97060.19;;;7.74;100.00
36502;BME280;25393;46.108;3.390;2023-03-26T18:24:24;97074.50;;;7.80;100.00
36502;BME280;25393;46.108;3.390;2023-03-26T18:27:09;97072.56;;;7.74;100.00
36502;BME280;25393;46.108;3.390;2023-03-26T18:29:42;97064.81;;;7.72;100.00
36502;BME280;25393;46.108;3.390;2023-03-26T18:34:38;97065.94;;;7.78;100.00
36502;BME280;25393;46.108;3.390;2023-03-26T18:37:20;97060.72;;;7.70;100.00
36502;BME280;25393;46.108;3.390;2023-03-26T18:40:00;97062.03;;;7.74;100.00
36502;BME280;25393;46.108;3.390;2023-03-26T18:42:32;97061.47;;;7.78;100.00
36502;BME280;25393;46.108;3.390;2023-03-26T18:45:02;97048.72;;;7.90;100.00
36502;BME280;25393;46.108;3.390;2023-03-26T18:47:32;97039.25;;;7.73;100.00
36502;BME280;25393;46.108;3.390;2023-03-26T18:49:59;97065.25;;;7.84;100.00
36502;BME280;25393;46.108;3.390;2023-03-26T18:52:27;97068.91;;;7.75;100.00
36502;BME280;25393;46.108;3.390;2023-03-26T18:54:55;97066.03;;;7.62;100.00
36502;BME280;25393;46.108;3.390;2023-03-26T18:57:27;97071.19;;;7.55;100.00
36502;BME280;25393;46.108;3.390;2023-03-26T19:00:04;97084.66;;;7.60;100.00
36502;BME280;25393;46.108;3.390;2023-03-26T19:02:35;97088.56;;;7.41;100.00
36502;BME280;25393;46.108;3.390;2023-03-26T19:05:04;97108.59;;;7.50;100.00
36502;BME280;25393;46.108;3.390;2023-03-26T19:07:33;97107.66;;;7.43;100.00
36502;BME280;25393;46.108;3.390;2023-03-26T19:10:01;97116.72;;;7.49;100.00
36502;BME280;25393;46.108;3.390;2023-03-26T19:12:29;97125.25;;;7.51;100.00
36502;BME280;25393;46.108;3.390;2023-03-26T19:15:15;97138.94;;;7.46;100.00
36502;BME280;25393;46.108;3.390;2023-03-26T19:17:45;97137.31;;;7.45;100.00
36502;BME280;25393;46.108;3.390;2023-03-26T19:20:44;97157.06;;;7.49;100.00